National Weather Service United States Department of Commerce

Dangerous Wind Chills in the Northeast; High Winds in the High Plains; Heavy Snow Coming to the Sierras

Dangerously cold wind chill temperatures will continue to impact the Northeast U.S. through Saturday evening along with blizzard conditions in northern Maine. High winds may bring power outages, tree and property damage, and difficult travel over the northern Rocky Mountain Front and adjacent High Plains through Saturday afternoon. Heavy snow will move into the Sierras of California Saturday. Read More >

FAA logo - Click to go to the FAA homepage

NY TRACON Strategic Planning Aid (SPA)

For ATC Planning Purposes Only - Page refreshes every 5 minutes - See AviationWeather.gov if data is not current
NWS logo - Click to go to the NWS homepage

Pre-Duty Weather Briefing


YELLOW TABS indicate TAF updated within last 30 minutes. RED TABS indicate TAF updated within last 5 minutes.

  • TAF Board
  • Discussion
  • Current Conditions
  • Snow/Ice

Potential Impact None Slight Moderate High
Valid at: 0400 UTC 04 Feb 2023
TimeOBS04/04Z04/05Z04/06Z04/07Z04/08Z04/09Z04/10Z04/11Z04/12Z04/13Z04/14Z04/15Z04/16Z>>
KJFK WSpd WGst WGst WSpd WSpd WSpd WSpd WSpd WSpd WSpd        
KLGA WSpd WSpd WSpd WSpd WSpd WSpd WSpd WSpd WSpd WSpd WSpd WSpd WSpd WSpd
KEWR WSpd WSpd WSpd WSpd WSpd WSpd WGst WGst WGst WSpd WSpd WSpd WSpd WSpd
KTEB                            
KHPN   WGst WGst                      
KISP WGst WGst WGst                      
TimeOBS04/04Z04/05Z04/06Z04/07Z04/08Z04/09Z04/10Z04/11Z04/12Z04/13Z04/14Z04/15Z04/16Z

IMPORTANT: ITWS wind directions are magnetic. METAR/TAF winds are true. Add 13 degrees to METAR/TAF wind to get the magnetic direction.

Latest METAR:
METAR KJFK 040251Z 31025G32KT 10SM FEW060 M11/M24 A3032 RMK AO2 PK WND
     31039/0217 SLP267 T11111244 51031
Latest TAF:

Older TAFs
TAF Impact Board
ITWS Winds (GRAPH)
5-min ASOS Data
Hourly Temperature Forecast
General Public Forecast

IMPORTANT: ITWS wind directions are magnetic. METAR/TAF winds are true. Add 13 degrees to METAR/TAF wind to get the magnetic direction.

Latest METAR:
METAR KLGA 040251Z 29026G35KT 10SM FEW065 M11/M21 A3032 RMK AO2 PK WND
     31042/0229 SLP265 T11061211 51030
Latest TAF:

Older TAFs
TAF Impact Board
ITWS Winds (GRAPH)
5-min ASOS Data
Hourly Temperature Forecast
General Public Forecast

IMPORTANT: ITWS wind directions are magnetic. METAR/TAF winds are true. Add 13 degrees to METAR/TAF wind to get the magnetic direction.

Latest METAR:
METAR KEWR 040251Z 28021G31KT 10SM BKN050 M10/M23 A3033 RMK AO2 PK WND
     29034/0228 SLP271 T11001233 51030
Latest TAF:

Older TAFs
TAF Impact Board
ITWS Winds (GRAPH)
5-min ASOS Data
Hourly Temperature Forecast
General Public Forecast

IMPORTANT: ITWS wind directions are magnetic. METAR/TAF winds are true. Add 13 degrees to METAR/TAF wind to get the magnetic direction.

Latest METAR:
METAR KTEB 040251Z 30022G28KT 10SM FEW055 M12/M23 A3032 RMK AO2 PK WND
     33037/0236 SLP268 T11221233 51028
Latest TAF:

Older TAFs
TAF Impact Board
5-min ASOS Data
Hourly Temperature Forecast
General Public Forecast

IMPORTANT: ITWS wind directions are magnetic. METAR/TAF winds are true. Add 13 degrees to METAR/TAF wind to get the magnetic direction.

Latest METAR:
METAR KHPN 040256Z 30017G29KT 270V330 10SM BKN055 M13/M23 A3025 RMK AO2
     PK WND 29044/0209 SLP258 T11281228 53024
Latest TAF:

Older TAFs
TAF Impact Board
5-min ASOS Data
Hourly Temperature Forecast
General Public Forecast

IMPORTANT: ITWS wind directions are magnetic. METAR/TAF winds are true. Add 13 degrees to METAR/TAF wind to get the magnetic direction.

Latest METAR:
METAR KISP 040256Z 30018G36KT 10SM BKN055 M12/M24 A3027 RMK AO2 PK WND
     29037/0205 SLP251 VIRGA OHD AND ALQDS T11171239 53029
Latest TAF:

Older TAFs
TAF Impact Board
5-min ASOS Data
Hourly Temperature Forecast
General Public Forecast

 

Forecast Discussion Prepared at 
 
5-Day Outlook
 

 

Click on Radar and Satellite images below for a loop.

Radar Loop

Radar Loop

Regional Flight Category Map

Flight Category

Visible Satellite Loop

Visible Satellite

Infrared Satellite Loop

IR Satellite

Expected Snowfall

Expected Snowfall

Expected Ice Accumulation

Expected Ice Accumulation

Click here for detailed Snow/Ice Info

PIREPs     SIGMETs     AIRMETs     ZNY CWA/MIS     ZBW CWA/MIS

Click on images below to enlarge.

Morning SWAP Statement

(Updated daily April 1 - September 30)

 

Radar Loop

Radar Loop

Convective SIGMETs

Convective SIGMETs

TFM Convective Forecast (TCF)

4-hr TCF

Day 1 SWAP Forecast

Day 1 SWAP Forecast

Day 2 SWAP Outlook

Day 2 SWAP Outlook

Day 3 SWAP Outlook

Day 3 SWAP Outlook

SPC Day 1 Convective Outlook

SPC Day 1 Convective Outlook

International Departure Gate Forecast

International Departure Gate Forecast

Domestic Arrival/Departure Fix Forecast

Domestic Arrival/Departure Fix Forecast

N90 Icing TDA

N90 Icing TDA

Current Icing SIGMETs

Icing SIGMETs

Recent Icing PIREPs

Icing PIREPs

00-03 hr Icing AIRMETs

0-3 hr Icing AIRMETs

03-06 hr Icing AIRMETs

3-6 hr Icing AIRMETs

06-09 hr Icing AIRMETs

6-9 hr Icing AIRMETs

 

CIP/FIP Icing Guidance

CIP/FIP Icing Guidance

 

Current Turb SIGMETs

Turb SIGMETs

Recent Turb/LLWS PIREPs

Turb/LLWS PIREPs

Turbulence Guidance (GTG)

GTG

00-03 hr Turb/LLWS AIRMETs

0-3 hr Turb/LLWS AIRMETs

03-06 hr Turb/LLWS AIRMETs

3-6 hr Turb/LLWS AIRMETs

06-09 hr Turb/LLWS AIRMETs

6-9 hr Turb/LLWS AIRMETs

N90 Compression Outlook

N90 Compression Outlook

N90 Compression TDA

N90 Compression TDA